createdAt,value
2022-09-13T00:02:23.671Z,18.85
2022-09-13T00:04:49.960Z,18.85
2022-09-13T00:07:16.304Z,18.83
2022-09-13T00:09:42.644Z,18.78
2022-09-13T00:12:08.991Z,18.70
2022-09-13T00:14:35.317Z,18.65
2022-09-13T00:17:01.673Z,18.63
2022-09-13T00:19:28.012Z,18.65
2022-09-13T00:21:54.368Z,18.67
2022-09-13T00:24:20.708Z,18.61
2022-09-13T00:26:47.028Z,18.54
2022-09-13T00:29:13.369Z,18.48
2022-09-13T00:31:39.719Z,18.46
2022-09-13T00:34:06.030Z,18.43
2022-09-13T00:36:32.372Z,18.40
2022-09-13T00:38:58.696Z,18.39
2022-09-13T00:41:25.046Z,18.41
2022-09-13T00:43:51.403Z,18.38
2022-09-13T00:46:17.755Z,18.37
2022-09-13T00:48:44.094Z,18.36
2022-09-13T00:51:10.454Z,18.36
2022-09-13T00:53:36.853Z,18.36
2022-09-13T00:56:03.128Z,18.34
2022-09-13T00:58:29.453Z,18.34
2022-09-13T01:00:55.814Z,18.34
2022-09-13T01:03:22.095Z,18.35
2022-09-13T01:05:48.446Z,18.36
2022-09-13T01:08:14.768Z,18.41
2022-09-13T01:10:41.113Z,18.40
2022-09-13T01:13:07.432Z,18.43
2022-09-13T01:15:33.761Z,18.45
2022-09-13T01:18:00.106Z,18.44
2022-09-13T01:20:26.465Z,18.43
2022-09-13T01:22:52.790Z,18.42
2022-09-13T01:25:19.142Z,18.45
2022-09-13T01:27:45.461Z,18.44
2022-09-13T01:30:11.815Z,18.45
2022-09-13T01:32:38.135Z,18.45
2022-09-13T01:35:04.484Z,18.45
2022-09-13T01:37:30.856Z,18.50
2022-09-13T01:39:57.217Z,18.50
2022-09-13T01:42:23.518Z,18.53
2022-09-13T01:44:49.863Z,18.55
2022-09-13T01:47:16.206Z,18.56
2022-09-13T01:49:42.563Z,18.57
2022-09-13T01:52:08.913Z,18.55
2022-09-13T01:54:35.237Z,18.52
2022-09-13T01:57:01.563Z,18.49
2022-09-13T01:59:27.890Z,18.46
2022-09-13T02:01:54.300Z,18.45
2022-09-13T02:04:20.582Z,18.47
2022-09-13T02:06:46.898Z,18.46
2022-09-13T02:09:13.271Z,18.46
2022-09-13T02:11:39.594Z,18.46
2022-09-13T02:14:05.920Z,18.46
2022-09-13T02:16:32.337Z,18.46
2022-09-13T02:18:58.622Z,18.47
2022-09-13T02:21:24.968Z,18.46
2022-09-13T02:23:51.312Z,18.44
2022-09-13T02:26:17.637Z,18.40
2022-09-13T02:28:43.995Z,18.38
2022-09-13T02:31:10.336Z,18.36
2022-09-13T02:33:36.683Z,18.37
2022-09-13T02:36:03.043Z,18.34
2022-09-13T02:38:29.391Z,18.33
2022-09-13T02:40:55.717Z,18.28
2022-09-13T02:43:22.089Z,18.23
2022-09-13T02:45:48.481Z,18.22
2022-09-13T02:48:14.765Z,18.21
2022-09-13T02:50:41.126Z,18.15
2022-09-13T02:53:07.477Z,18.11
2022-09-13T02:55:33.796Z,18.07
2022-09-13T02:58:00.128Z,18.00
2022-09-13T03:00:26.475Z,17.96
2022-09-13T03:02:52.820Z,17.95
2022-09-13T03:05:19.207Z,17.93
2022-09-13T03:07:45.533Z,17.88
2022-09-13T03:10:11.850Z,17.80
2022-09-13T03:12:38.181Z,17.75
2022-09-13T03:15:04.504Z,17.70
2022-09-13T03:17:30.879Z,17.66
2022-09-13T03:19:57.223Z,17.63
2022-09-13T03:22:23.550Z,17.60
2022-09-13T03:24:49.878Z,17.59
2022-09-13T03:27:16.224Z,17.57
2022-09-13T03:29:42.569Z,17.56
2022-09-13T03:32:09.010Z,17.57
2022-09-13T03:34:35.302Z,17.55
2022-09-13T03:37:01.649Z,17.55
2022-09-13T03:39:28.003Z,17.57
2022-09-13T03:41:54.327Z,17.55
2022-09-13T03:44:20.668Z,17.53
2022-09-13T03:46:46.993Z,17.52
2022-09-13T03:49:13.320Z,17.48
2022-09-13T03:51:39.648Z,17.46
2022-09-13T03:54:05.989Z,17.52
2022-09-13T03:56:32.337Z,17.54
2022-09-13T03:58:58.657Z,17.56
2022-09-13T04:01:25.043Z,17.57
2022-09-13T04:03:55.845Z,17.60
2022-09-13T04:06:17.680Z,17.59
2022-09-13T04:08:44.027Z,17.58
2022-09-13T04:11:10.402Z,17.56
2022-09-13T04:13:36.749Z,17.52
2022-09-13T04:16:03.112Z,17.51
2022-09-13T04:18:29.404Z,17.48
2022-09-13T04:20:55.758Z,17.46
2022-09-13T04:23:22.077Z,17.44
2022-09-13T04:25:48.404Z,17.42
2022-09-13T04:28:14.757Z,17.40
2022-09-13T04:30:42.787Z,17.38
2022-09-13T04:33:07.438Z,17.34
2022-09-13T04:35:33.768Z,17.32
2022-09-13T04:38:00.114Z,17.32
2022-09-13T04:40:26.472Z,17.36
2022-09-13T04:42:52.853Z,17.43
2022-09-13T04:45:19.200Z,17.54
2022-09-13T04:47:45.516Z,17.79
2022-09-13T04:50:11.847Z,18.14
2022-09-13T04:52:38.169Z,18.42
2022-09-13T04:55:04.488Z,18.64
2022-09-13T04:57:30.812Z,18.81
2022-09-13T04:59:57.175Z,18.77
2022-09-13T05:02:23.553Z,18.74
2022-09-13T05:04:49.871Z,18.73
2022-09-13T05:07:16.230Z,18.74
2022-09-13T05:09:42.567Z,18.76
2022-09-13T05:12:08.912Z,18.82
2022-09-13T05:14:35.274Z,18.88
2022-09-13T05:17:01.616Z,18.95
2022-09-13T05:19:27.979Z,19.01
2022-09-13T05:21:54.313Z,19.08
2022-09-13T05:24:20.645Z,19.18
2022-09-13T05:26:47.032Z,19.32
2022-09-13T05:29:13.359Z,19.48
2022-09-13T05:31:39.781Z,19.65
2022-09-13T05:34:06.064Z,19.85
2022-09-13T05:36:32.424Z,20.04
2022-09-13T05:39:26.046Z,20.16
2022-09-13T05:41:25.097Z,20.34
2022-09-13T05:43:54.136Z,20.50
2022-09-13T05:46:17.977Z,20.66
2022-09-13T05:48:44.087Z,20.83
2022-09-13T05:51:10.439Z,21.00
2022-09-13T05:53:36.782Z,21.13
2022-09-13T05:56:03.105Z,21.28
2022-09-13T05:58:29.464Z,21.44
2022-09-13T06:00:55.866Z,21.58
2022-09-13T06:03:22.217Z,21.73
2022-09-13T06:05:48.536Z,21.86
2022-09-13T06:08:14.870Z,21.98
2022-09-13T06:10:41.196Z,22.12
2022-09-13T06:13:07.557Z,22.25
2022-09-13T06:15:33.915Z,22.40
2022-09-13T06:18:00.263Z,22.55
2022-09-13T06:20:28.802Z,22.72
2022-09-13T06:22:55.152Z,22.86
2022-09-13T06:25:21.488Z,22.93
2022-09-13T06:27:50.053Z,22.96
2022-09-13T06:30:14.296Z,22.90
2022-09-13T06:32:40.642Z,23.01
2022-09-13T06:35:07.001Z,23.17
2022-09-13T06:37:33.347Z,23.34
2022-09-13T06:39:59.733Z,23.40
2022-09-13T06:42:26.027Z,23.53
2022-09-13T06:44:52.378Z,23.69
2022-09-13T06:47:18.715Z,23.83
2022-09-13T06:49:45.063Z,23.97
2022-09-13T06:52:11.410Z,24.06
2022-09-13T06:54:37.750Z,24.17
2022-09-13T06:57:04.080Z,24.29
2022-09-13T06:59:30.491Z,24.45
2022-09-13T07:01:56.869Z,24.59
2022-09-13T07:04:23.196Z,24.70
2022-09-13T07:06:49.546Z,24.82
2022-09-13T07:09:15.878Z,24.94
2022-09-13T07:11:42.223Z,25.06
2022-09-13T07:14:08.551Z,25.17
2022-09-13T07:16:34.929Z,25.32
2022-09-13T07:19:01.314Z,25.46
2022-09-13T07:21:27.650Z,25.62
2022-09-13T07:23:53.998Z,25.81
2022-09-13T07:26:20.349Z,25.98
2022-09-13T07:28:46.777Z,26.11
2022-09-13T07:31:13.142Z,26.24
2022-09-13T07:33:39.364Z,26.41
2022-09-13T07:36:05.694Z,26.58
2022-09-13T07:38:32.026Z,26.69
2022-09-13T07:40:58.362Z,26.91
2022-09-13T07:43:24.696Z,27.07
2022-09-13T07:45:51.133Z,27.20
2022-09-13T07:48:17.512Z,27.33
2022-09-13T07:50:43.860Z,27.48
2022-09-13T07:53:10.213Z,27.59
2022-09-13T07:55:36.537Z,27.65
2022-09-13T07:58:02.895Z,27.75
2022-09-13T08:00:29.261Z,27.96
2022-09-13T08:02:55.610Z,28.19
2022-09-13T08:05:21.936Z,28.29
2022-09-13T08:07:48.343Z,28.32
2022-09-13T08:10:14.694Z,28.36
2022-09-13T08:12:41.017Z,28.41
2022-09-13T08:15:07.367Z,28.54
2022-09-13T08:17:33.729Z,28.63
2022-09-13T08:20:00.058Z,28.55
2022-09-13T08:22:26.390Z,28.49
2022-09-13T08:24:52.746Z,28.63
2022-09-13T08:27:19.089Z,28.63
2022-09-13T08:29:45.435Z,28.36
2022-09-13T08:32:11.791Z,27.98
2022-09-13T08:34:38.139Z,27.61
2022-09-13T08:37:04.813Z,27.39
2022-09-13T08:39:33.469Z,27.17
2022-09-13T08:41:57.542Z,26.96
2022-09-13T08:44:23.859Z,26.74
2022-09-13T08:46:50.197Z,26.59
2022-09-13T08:49:16.710Z,26.76
2022-09-13T08:51:42.889Z,27.15
2022-09-13T08:54:09.206Z,27.46
2022-09-13T08:56:35.533Z,27.78
2022-09-13T08:59:01.854Z,28.13
2022-09-13T09:01:28.299Z,28.52
2022-09-13T09:03:54.588Z,28.84
2022-09-13T09:06:20.931Z,29.17
2022-09-13T09:08:47.276Z,29.47
2022-09-13T09:11:13.611Z,29.46
2022-09-13T09:13:39.999Z,29.63
2022-09-13T09:16:06.426Z,29.75
2022-09-13T09:18:32.688Z,29.87
2022-09-13T09:20:59.010Z,30.07
2022-09-13T09:23:25.368Z,30.30
2022-09-13T09:25:51.711Z,30.54
2022-09-13T09:28:18.091Z,30.68
2022-09-13T09:30:44.446Z,30.45
2022-09-13T09:33:10.746Z,30.01
2022-09-13T09:35:37.082Z,29.53
2022-09-13T09:38:03.426Z,29.02
2022-09-13T09:40:31.719Z,28.89
2022-09-13T09:42:56.082Z,28.93
2022-09-13T09:45:22.427Z,28.88
2022-09-13T09:47:48.780Z,28.74
2022-09-13T09:50:15.110Z,28.56
2022-09-13T09:52:41.463Z,28.47
2022-09-13T09:55:07.791Z,28.38
2022-09-13T09:57:34.138Z,28.61
2022-09-13T10:00:00.465Z,29.02
2022-09-13T10:02:26.888Z,29.47
2022-09-13T10:04:53.212Z,29.63
2022-09-13T10:07:19.540Z,29.50
2022-09-13T10:09:45.877Z,29.19
2022-09-13T10:12:12.236Z,28.89
2022-09-13T10:14:38.567Z,28.64
2022-09-13T10:17:04.919Z,28.78
2022-09-13T10:19:31.296Z,29.17
2022-09-13T10:21:57.620Z,29.56
2022-09-13T10:24:23.958Z,29.91
2022-09-13T10:26:50.307Z,30.21
2022-09-13T10:29:16.700Z,30.47
2022-09-13T10:31:43.028Z,30.71
2022-09-13T10:34:09.390Z,30.92
2022-09-13T10:36:51.788Z,31.20
2022-09-13T10:39:02.124Z,31.45
2022-09-13T10:41:28.453Z,31.63
2022-09-13T10:43:54.812Z,31.82
2022-09-13T10:46:21.207Z,31.96
2022-09-13T10:48:47.514Z,31.88
2022-09-13T10:51:13.858Z,31.56
2022-09-13T10:53:40.204Z,31.30
2022-09-13T10:56:06.557Z,31.14
2022-09-13T10:58:32.914Z,31.01
2022-09-13T11:00:59.351Z,30.96
2022-09-13T11:03:25.567Z,31.04
2022-09-13T11:05:51.920Z,31.17
2022-09-13T11:08:18.247Z,31.26
2022-09-13T11:10:44.620Z,31.37
2022-09-13T11:13:10.987Z,31.47
2022-09-13T11:15:37.310Z,31.67
2022-09-13T11:18:03.667Z,31.79
2022-09-13T11:20:30.027Z,31.73
2022-09-13T11:22:56.353Z,31.59
2022-09-13T11:25:22.704Z,31.46
2022-09-13T11:27:49.050Z,31.45
2022-09-13T11:30:15.395Z,31.48
2022-09-13T11:32:41.742Z,31.50
2022-09-13T11:35:08.087Z,31.51
2022-09-13T11:37:34.421Z,31.47
2022-09-13T11:40:00.841Z,31.57
2022-09-13T11:42:27.374Z,31.71
2022-09-13T11:44:53.790Z,31.63
2022-09-13T11:47:20.312Z,31.32
2022-09-13T11:49:46.663Z,31.13
2022-09-13T11:52:13.039Z,31.16
2022-09-13T11:54:39.395Z,31.24
2022-09-13T11:57:05.749Z,31.16
2022-09-13T11:59:32.092Z,31.03
2022-09-13T12:01:58.528Z,31.00
2022-09-13T12:04:25.691Z,30.99
2022-09-13T12:06:51.109Z,30.93
2022-09-13T12:09:17.457Z,30.87
2022-09-13T12:11:43.810Z,30.74
2022-09-13T12:14:10.162Z,30.59
2022-09-13T12:16:36.659Z,30.47
2022-09-13T12:19:02.847Z,30.47
2022-09-13T12:21:29.182Z,30.53
2022-09-13T12:23:55.529Z,30.62
2022-09-13T12:26:21.867Z,30.65
2022-09-13T12:28:48.264Z,30.68
2022-09-13T12:31:14.614Z,30.73
2022-09-13T12:33:40.940Z,30.70
2022-09-13T12:36:07.358Z,30.66
2022-09-13T12:38:33.695Z,30.63
2022-09-13T12:41:00.072Z,30.62
2022-09-13T12:43:26.384Z,30.62
2022-09-13T12:45:52.747Z,30.53
2022-09-13T12:48:19.481Z,30.43
2022-09-13T12:50:45.890Z,30.31
2022-09-13T12:53:12.163Z,30.15
2022-09-13T12:55:47.441Z,30.05
2022-09-13T12:58:04.936Z,29.99
2022-09-13T13:00:31.259Z,29.96
2022-09-13T13:02:57.623Z,29.88
2022-09-13T13:05:23.953Z,29.72
2022-09-13T13:07:50.290Z,29.49
2022-09-13T13:10:16.622Z,29.37
2022-09-13T13:12:42.974Z,29.29
2022-09-13T13:15:09.306Z,29.24
2022-09-13T13:17:35.648Z,29.22
2022-09-13T13:20:02.001Z,29.14
2022-09-13T13:22:28.326Z,29.05
2022-09-13T13:24:54.717Z,28.95
2022-09-13T13:27:21.058Z,28.83
2022-09-13T13:29:47.404Z,28.68
2022-09-13T13:32:13.771Z,28.55
2022-09-13T13:34:40.111Z,28.46
2022-09-13T13:37:06.464Z,28.33
2022-09-13T13:39:32.794Z,28.26
2022-09-13T13:41:59.154Z,28.19
2022-09-13T13:44:25.491Z,28.07
2022-09-13T13:46:51.834Z,27.98
2022-09-13T13:49:18.214Z,27.92
2022-09-13T13:51:44.567Z,27.87
2022-09-13T13:54:10.931Z,27.79
2022-09-13T13:56:37.284Z,27.76
2022-09-13T13:59:03.630Z,27.72
2022-09-13T14:01:29.961Z,27.64
2022-09-13T14:03:56.322Z,27.50
2022-09-13T14:06:23.145Z,27.37
2022-09-13T14:08:49.587Z,27.24
2022-09-13T14:11:15.871Z,27.11
2022-09-13T14:13:42.271Z,27.00
2022-09-13T14:16:08.578Z,26.91
2022-09-13T14:18:34.989Z,26.80
2022-09-13T14:21:01.278Z,26.71
2022-09-13T14:23:27.631Z,26.62
2022-09-13T14:25:53.993Z,26.56
2022-09-13T14:28:20.351Z,26.49
2022-09-13T14:30:46.700Z,26.43
2022-09-13T14:33:13.066Z,26.40
2022-09-13T14:35:39.390Z,26.34
2022-09-13T14:38:05.724Z,26.27
2022-09-13T14:40:32.129Z,26.22
2022-09-13T14:42:58.403Z,26.17
2022-09-13T14:45:24.757Z,26.11
2022-09-13T14:47:51.157Z,26.04
2022-09-13T14:50:17.443Z,25.98
2022-09-13T14:52:43.802Z,25.92
2022-09-13T14:55:10.162Z,25.83
2022-09-13T14:57:36.487Z,25.75
2022-09-13T15:00:02.842Z,25.69
2022-09-13T15:02:29.354Z,25.64
2022-09-13T15:04:55.763Z,25.59
2022-09-13T15:07:22.074Z,25.53
2022-09-13T15:09:48.420Z,25.46
2022-09-13T15:12:14.747Z,25.43
2022-09-13T15:14:41.082Z,25.39
2022-09-13T15:17:07.427Z,25.35
2022-09-13T15:19:33.764Z,25.30
2022-09-13T15:22:00.117Z,25.25
2022-09-13T15:24:26.440Z,25.21
2022-09-13T15:26:52.799Z,25.16
2022-09-13T15:29:19.148Z,25.10
2022-09-13T15:31:45.538Z,25.03
2022-09-13T15:34:11.842Z,25.00
2022-09-13T15:36:38.175Z,24.95
2022-09-13T15:39:04.526Z,24.90
2022-09-13T15:41:30.899Z,24.87
2022-09-13T15:43:57.274Z,24.82
2022-09-13T15:46:23.631Z,24.75
2022-09-13T15:48:49.947Z,24.71
2022-09-13T15:51:16.320Z,24.68
2022-09-13T15:53:42.646Z,24.63
2022-09-13T15:56:08.996Z,24.58
2022-09-13T15:58:35.333Z,24.50
2022-09-13T16:01:01.719Z,24.47
2022-09-13T16:03:27.986Z,24.41
2022-09-13T16:05:54.355Z,24.35
2022-09-13T16:08:20.679Z,24.33
2022-09-13T16:10:47.028Z,24.31
2022-09-13T16:13:13.341Z,24.25
2022-09-13T16:15:39.671Z,24.17
2022-09-13T16:18:06.032Z,24.12
2022-09-13T16:20:32.379Z,24.08
2022-09-13T16:22:58.691Z,24.05
2022-09-13T16:25:25.058Z,24.00
2022-09-13T16:27:51.410Z,23.98
2022-09-13T16:30:17.759Z,23.93
2022-09-13T16:32:44.139Z,24.03
2022-09-13T16:35:10.490Z,24.06
2022-09-13T16:37:36.839Z,24.03
2022-09-13T16:40:03.223Z,23.93
2022-09-13T16:42:29.548Z,23.85
2022-09-13T16:44:55.902Z,23.78
2022-09-13T16:47:22.267Z,23.73
2022-09-13T16:49:48.605Z,23.70
2022-09-13T16:52:14.933Z,23.63
2022-09-13T16:54:41.285Z,23.64
2022-09-13T16:57:07.634Z,23.59
2022-09-13T16:59:33.969Z,23.56
2022-09-13T17:02:00.418Z,23.56
2022-09-13T17:04:26.677Z,23.48
2022-09-13T17:06:53.025Z,23.44
2022-09-13T17:09:19.358Z,23.39
2022-09-13T17:11:45.691Z,23.34
2022-09-13T17:14:12.044Z,23.30
2022-09-13T17:16:38.488Z,23.31
2022-09-13T17:19:04.727Z,23.27
2022-09-13T17:21:31.061Z,23.21
2022-09-13T17:23:57.414Z,23.16
2022-09-13T17:26:23.771Z,23.13
2022-09-13T17:28:50.109Z,23.10
2022-09-13T17:31:16.458Z,23.07
2022-09-13T17:33:42.834Z,23.05
2022-09-13T17:36:09.152Z,23.01
2022-09-13T17:38:35.469Z,22.97
2022-09-13T17:41:01.793Z,22.91
2022-09-13T17:43:28.138Z,22.87
2022-09-13T17:45:54.486Z,22.83
2022-09-13T17:48:20.812Z,22.80
2022-09-13T17:50:47.200Z,22.79
2022-09-13T17:53:13.536Z,22.77
2022-09-13T17:55:39.867Z,22.76
2022-09-13T17:58:06.258Z,22.73
2022-09-13T18:00:32.590Z,22.72
2022-09-13T18:02:58.975Z,22.66
2022-09-13T18:05:25.306Z,22.62
2022-09-13T18:07:51.667Z,22.57
2022-09-13T18:10:45.165Z,22.52
2022-09-13T18:12:44.329Z,22.47
2022-09-13T18:15:10.667Z,22.45
2022-09-13T18:17:37.003Z,22.42
2022-09-13T18:20:03.374Z,22.34
2022-09-13T18:22:29.718Z,22.32
2022-09-13T18:24:56.063Z,22.28
2022-09-13T18:27:22.430Z,22.24
2022-09-13T18:29:48.768Z,22.16
2022-09-13T18:32:15.098Z,22.10
2022-09-13T18:34:41.461Z,22.10
2022-09-13T18:37:07.789Z,22.09
2022-09-13T18:39:34.118Z,22.09
2022-09-13T18:42:00.611Z,22.04
2022-09-13T18:44:26.973Z,21.94
2022-09-13T18:46:53.308Z,21.90
2022-09-13T18:49:19.697Z,21.83
2022-09-13T18:51:46.019Z,21.78
2022-09-13T18:54:12.344Z,21.74
2022-09-13T18:56:38.719Z,21.70
2022-09-13T18:59:05.056Z,21.67
2022-09-13T19:01:31.517Z,21.60
2022-09-13T19:03:57.729Z,21.55
2022-09-13T19:06:24.048Z,21.58
2022-09-13T19:08:50.392Z,21.61
2022-09-13T19:11:42.089Z,21.58
2022-09-13T19:13:43.124Z,21.55
2022-09-13T19:16:09.506Z,21.51
2022-09-13T19:18:35.798Z,21.49
2022-09-13T19:21:02.139Z,21.46
2022-09-13T19:23:43.150Z,21.41
2022-09-13T19:25:54.829Z,21.30
2022-09-13T19:28:21.194Z,21.20
2022-09-13T19:30:47.559Z,21.09
2022-09-13T19:33:13.884Z,21.04
2022-09-13T19:35:40.225Z,21.07
2022-09-13T19:38:06.917Z,21.04
2022-09-13T19:40:33.280Z,21.02
2022-09-13T19:42:59.612Z,20.99
2022-09-13T19:45:25.947Z,20.97
2022-09-13T19:48:34.767Z,20.94
2022-09-13T19:50:18.660Z,20.93
2022-09-13T19:52:44.988Z,20.93
2022-09-13T19:55:11.311Z,20.92
2022-09-13T19:57:39.951Z,20.89
2022-09-13T20:00:03.991Z,20.89
2022-09-13T20:02:30.342Z,20.83
2022-09-13T20:04:56.799Z,20.78
2022-09-13T20:07:23.045Z,20.76
2022-09-13T20:09:49.387Z,20.68
2022-09-13T20:12:15.751Z,20.58
2022-09-13T20:14:42.079Z,20.51
2022-09-13T20:17:08.653Z,20.43
2022-09-13T20:19:47.587Z,20.43
2022-09-13T20:22:01.313Z,20.43
2022-09-13T20:24:27.661Z,20.36
2022-09-13T20:26:54.223Z,20.27
2022-09-13T20:29:20.700Z,20.20
2022-09-13T20:31:47.133Z,20.14
2022-09-13T20:34:13.510Z,20.09
2022-09-13T20:36:40.036Z,20.05
2022-09-13T20:39:06.627Z,20.00
2022-09-13T20:41:33.000Z,19.99
2022-09-13T20:43:59.329Z,19.96
2022-09-13T20:46:25.736Z,19.90
2022-09-13T20:48:52.023Z,19.84
2022-09-13T20:51:18.345Z,19.80
2022-09-13T20:53:44.663Z,19.78
2022-09-13T20:56:11.011Z,19.73
2022-09-13T20:58:37.347Z,19.75
2022-09-13T21:01:03.737Z,19.73
2022-09-13T21:03:30.031Z,19.70
2022-09-13T21:05:56.377Z,19.72
2022-09-13T21:08:22.722Z,19.81
2022-09-13T21:10:49.048Z,19.85
2022-09-13T21:13:17.853Z,19.73
2022-09-13T21:15:44.179Z,19.61
2022-09-13T21:18:10.523Z,19.51
2022-09-13T21:20:36.902Z,19.49
2022-09-13T21:23:03.249Z,19.50
2022-09-13T21:25:29.565Z,19.46
2022-09-13T21:27:55.909Z,19.38
2022-09-13T21:30:22.250Z,19.34
2022-09-13T21:32:48.582Z,19.28
2022-09-13T21:35:14.939Z,19.31
2022-09-13T21:37:41.274Z,19.27
2022-09-13T21:40:07.650Z,19.22
2022-09-13T21:42:33.948Z,19.14
2022-09-13T21:45:00.293Z,19.08
2022-09-13T21:47:26.606Z,19.06
2022-09-13T21:49:52.932Z,19.03
2022-09-13T21:52:19.274Z,19.00
2022-09-13T21:54:45.616Z,19.01
2022-09-13T21:57:11.970Z,18.95
2022-09-13T21:59:38.313Z,18.87
2022-09-13T22:02:04.680Z,18.80
2022-09-13T22:04:31.044Z,18.76
2022-09-13T22:06:57.377Z,18.71
2022-09-13T22:09:23.710Z,18.64
2022-09-13T22:11:50.087Z,18.63
2022-09-13T22:14:16.432Z,18.64
2022-09-13T22:16:42.817Z,18.64
2022-09-13T22:19:09.576Z,18.64
2022-09-13T22:21:35.443Z,18.58
2022-09-13T22:24:01.798Z,18.54
2022-09-13T22:26:28.142Z,18.48
2022-09-13T22:28:54.467Z,18.46
2022-09-13T22:31:20.903Z,18.40
2022-09-13T22:33:47.217Z,18.39
2022-09-13T22:36:13.476Z,18.38
2022-09-13T22:38:39.864Z,18.34
2022-09-13T22:41:06.208Z,18.31
2022-09-13T22:43:32.527Z,18.40
2022-09-13T22:45:58.897Z,18.37
2022-09-13T22:48:25.211Z,18.34
2022-09-13T22:50:51.537Z,18.28
2022-09-13T22:53:17.862Z,18.22
2022-09-13T22:55:44.183Z,18.15
2022-09-13T22:58:10.512Z,18.11
2022-09-13T23:00:36.860Z,18.09
2022-09-13T23:03:03.217Z,18.09
2022-09-13T23:05:29.564Z,18.12
2022-09-13T23:07:55.910Z,18.09
2022-09-13T23:10:22.254Z,18.02
2022-09-13T23:12:48.602Z,17.98
2022-09-13T23:15:14.914Z,17.95
2022-09-13T23:17:41.246Z,17.94
2022-09-13T23:20:07.627Z,17.91
2022-09-13T23:22:33.950Z,17.90
2022-09-13T23:25:00.291Z,17.92
2022-09-13T23:27:26.618Z,17.93
2022-09-13T23:29:52.984Z,17.93
2022-09-13T23:32:19.305Z,17.88
2022-09-13T23:34:45.621Z,17.79
2022-09-13T23:37:11.951Z,17.75
2022-09-13T23:39:38.294Z,17.73
2022-09-13T23:42:04.677Z,17.69
2022-09-13T23:44:31.017Z,17.67
2022-09-13T23:46:57.337Z,17.66
2022-09-13T23:49:23.703Z,17.63
2022-09-13T23:51:50.051Z,17.58
2022-09-13T23:54:16.410Z,17.59
2022-09-13T23:56:42.740Z,17.58
2022-09-13T23:59:09.087Z,17.55
